sensor_id;sensor_type;location;lat;lon;timestamp;pressure;altitude;pressure_sealevel;temperature;humidity
64023;BME280;50264;52.088;5.296;2022-12-18T00:01:00;102832.0;;;-2.52;89.94
64023;BME280;50264;52.088;5.296;2022-12-18T00:02:36;102830.0;;;-2.42;90.02
64023;BME280;50264;52.088;5.296;2022-12-18T00:04:16;102824.0;;;-2.4;90.14
64023;BME280;50264;52.088;5.296;2022-12-18T00:05:59;102822.0;;;-2.48;89.95
64023;BME280;50264;52.088;5.296;2022-12-18T00:09:12;102822.0;;;-2.39;89.88
64023;BME280;50264;52.088;5.296;2022-12-18T00:10:48;102815.00000000001;;;-2.35;90.11
64023;BME280;50264;52.088;5.296;2022-12-18T00:12:24;102808.0;;;-2.38;89.78
64023;BME280;50264;52.088;5.296;2022-12-18T00:15:38;102805.0;;;-2.53;89.6
64023;BME280;50264;52.088;5.296;2022-12-18T00:17:14;102798.0;;;-2.44;90.04
64023;BME280;50264;52.088;5.296;2022-12-18T00:18:53;102791.00000000001;;;-2.49;89.61
64023;BME280;50264;52.088;5.296;2022-12-18T00:22:12;102794.0;;;-2.57;90.23
64023;BME280;50264;52.088;5.296;2022-12-18T00:23:51;102795.0;;;-2.59;90.28
64023;BME280;50264;52.088;5.296;2022-12-18T00:25:27;102786.99999999999;;;-2.68;90.2
64023;BME280;50264;52.088;5.296;2022-12-18T00:27:03;102794.0;;;-2.6;90.22
64023;BME280;50264;52.088;5.296;2022-12-18T00:30:15;102801.0;;;-2.55;89.94
64023;BME280;50264;52.088;5.296;2022-12-18T00:31:52;102805.0;;;-2.69;89.77
64023;BME280;50264;52.088;5.296;2022-12-18T00:33:29;102808.0;;;-2.56;90.08
64023;BME280;50264;52.088;5.296;2022-12-18T00:35:06;102794.0;;;-2.49;89.54
64023;BME280;50264;52.088;5.296;2022-12-18T00:38:19;102792.0;;;-2.57;89.35
64023;BME280;50264;52.088;5.296;2022-12-18T00:39:55;102797.0;;;-2.68;89.55
64023;BME280;50264;52.088;5.296;2022-12-18T00:41:31;102802.0;;;-2.64;89.69
64023;BME280;50264;52.088;5.296;2022-12-18T00:44:45;102804.0;;;-2.64;89.84
64023;BME280;50264;52.088;5.296;2022-12-18T00:46:21;102809.99999999999;;;-2.7;89.67
64023;BME280;50264;52.088;5.296;2022-12-18T00:47:57;102805.0;;;-2.65;89.87
64023;BME280;50264;52.088;5.296;2022-12-18T00:51:09;102800.0;;;-2.67;89.51
64023;BME280;50264;52.088;5.296;2022-12-18T00:52:45;102800.0;;;-2.7;89.83
64023;BME280;50264;52.088;5.296;2022-12-18T00:54:22;102806.0;;;-2.73;89.71
64023;BME280;50264;52.088;5.296;2022-12-18T00:57:35;102799.0;;;-2.74;89.4
64023;BME280;50264;52.088;5.296;2022-12-18T00:59:11;102806.0;;;-2.69;89.45
64023;BME280;50264;52.088;5.296;2022-12-18T01:00:48;102797.0;;;-2.68;89.56
64023;BME280;50264;52.088;5.296;2022-12-18T01:02:24;102793.0;;;-2.61;89.19
64023;BME280;50264;52.088;5.296;2022-12-18T01:05:39;102794.0;;;-2.66;88.98
64023;BME280;50264;52.088;5.296;2022-12-18T01:07:15;102788.00000000001;;;-2.57;88.15
64023;BME280;50264;52.088;5.296;2022-12-18T01:08:52;102797.0;;;-2.78;88.29
64023;BME280;50264;52.088;5.296;2022-12-18T01:12:05;102795.0;;;-2.77;88.72
64023;BME280;50264;52.088;5.296;2022-12-18T01:13:41;102798.0;;;-2.85;89.0
64023;BME280;50264;52.088;5.296;2022-12-18T01:15:18;102798.0;;;-3.02;89.52
64023;BME280;50264;52.088;5.296;2022-12-18T01:18:32;102798.0;;;-2.93;89.06
64023;BME280;50264;52.088;5.296;2022-12-18T01:20:09;102800.0;;;-2.95;89.32
64023;BME280;50264;52.088;5.296;2022-12-18T01:21:47;102806.0;;;-3.08;89.35
64023;BME280;50264;52.088;5.296;2022-12-18T01:23:26;102801.0;;;-3.09;89.75
64023;BME280;50264;52.088;5.296;2022-12-18T01:26:41;102804.0;;;-3.08;89.77
64023;BME280;50264;52.088;5.296;2022-12-18T01:28:16;102808.99999999999;;;-3.01;89.79
64023;BME280;50264;52.088;5.296;2022-12-18T01:29:53;102814.00000000001;;;-2.97;89.82
64023;BME280;50264;52.088;5.296;2022-12-18T01:33:09;102814.00000000001;;;-2.9;89.28
64023;BME280;50264;52.088;5.296;2022-12-18T01:34:45;102805.0;;;-2.86;89.23
64023;BME280;50264;52.088;5.296;2022-12-18T01:36:24;102815.00000000001;;;-2.75;88.79
64023;BME280;50264;52.088;5.296;2022-12-18T01:38:01;102808.0;;;-2.65;88.62
64023;BME280;50264;52.088;5.296;2022-12-18T01:41:14;102820.0;;;-2.74;88.36
64023;BME280;50264;52.088;5.296;2022-12-18T01:42:55;102817.0;;;-2.89;88.8
64023;BME280;50264;52.088;5.296;2022-12-18T01:44:54;102819.0;;;-2.94;89.01
64023;BME280;50264;52.088;5.296;2022-12-18T01:46:56;102813.00000000001;;;-2.94;89.2
64023;BME280;50264;52.088;5.296;2022-12-18T01:48:33;102811.99999999999;;;-2.89;89.22
64023;BME280;50264;52.088;5.296;2022-12-18T01:51:50;102818.0;;;-2.98;89.07
64023;BME280;50264;52.088;5.296;2022-12-18T01:53:28;102823.0;;;-2.91;89.11
64023;BME280;50264;52.088;5.296;2022-12-18T01:56:42;102819.0;;;-3.07;88.84
64023;BME280;50264;52.088;5.296;2022-12-18T02:00:02;102823.0;;;-3.12;88.79
64023;BME280;50264;52.088;5.296;2022-12-18T02:01:43;102826.0;;;-3.19;88.99
64023;BME280;50264;52.088;5.296;2022-12-18T02:03:20;102827.0;;;-3.16;88.67
64023;BME280;50264;52.088;5.296;2022-12-18T02:06:36;102827.0;;;-3.2;88.49
64023;BME280;50264;52.088;5.296;2022-12-18T02:08:21;102826.0;;;-3.23;88.15
64023;BME280;50264;52.088;5.296;2022-12-18T02:10:06;102824.0;;;-3.3;87.86
64023;BME280;50264;52.088;5.296;2022-12-18T02:11:51;102829.0;;;-3.42;87.86
64023;BME280;50264;52.088;5.296;2022-12-18T02:13:35;102839.00000000001;;;-3.49;87.92
64023;BME280;50264;52.088;5.296;2022-12-18T02:17:06;102832.0;;;-3.6;87.5
64023;BME280;50264;52.088;5.296;2022-12-18T02:18:50;102833.0;;;-3.67;87.7
64023;BME280;50264;52.088;5.296;2022-12-18T02:20:33;102829.0;;;-3.76;87.73
64023;BME280;50264;52.088;5.296;2022-12-18T02:22:20;102832.0;;;-3.79;88.31
64023;BME280;50264;52.088;5.296;2022-12-18T02:24:17;102831.0;;;-3.85;88.21
64023;BME280;50264;52.088;5.296;2022-12-18T02:26:06;102829.0;;;-3.85;88.71
64023;BME280;50264;52.088;5.296;2022-12-18T02:29:30;102833.0;;;-3.93;88.13
64023;BME280;50264;52.088;5.296;2022-12-18T02:31:11;102830.0;;;-3.85;88.32
64023;BME280;50264;52.088;5.296;2022-12-18T02:32:53;102827.0;;;-3.81;88.09
64023;BME280;50264;52.088;5.296;2022-12-18T02:34:32;102826.0;;;-3.77;87.51
64023;BME280;50264;52.088;5.296;2022-12-18T02:37:53;102831.0;;;-3.73;87.38
64023;BME280;50264;52.088;5.296;2022-12-18T02:39:30;102827.0;;;-3.87;87.02
64023;BME280;50264;52.088;5.296;2022-12-18T02:41:09;102818.0;;;-3.96;87.37
64023;BME280;50264;52.088;5.296;2022-12-18T02:42:46;102825.0;;;-4.02;87.29
64023;BME280;50264;52.088;5.296;2022-12-18T02:45:59;102825.0;;;-4.08;87.49
64023;BME280;50264;52.088;5.296;2022-12-18T02:47:56;102809.99999999999;;;-4.18;87.43
64023;BME280;50264;52.088;5.296;2022-12-18T02:49:36;102814.00000000001;;;-4.17;86.97
64023;BME280;50264;52.088;5.296;2022-12-18T02:51:24;102815.00000000001;;;-4.19;87.52
64023;BME280;50264;52.088;5.296;2022-12-18T02:54:57;102816.00000000001;;;-4.29;87.1
64023;BME280;50264;52.088;5.296;2022-12-18T02:56:45;102817.0;;;-4.31;87.35
64023;BME280;50264;52.088;5.296;2022-12-18T02:58:30;102816.00000000001;;;-4.37;87.13
64023;BME280;50264;52.088;5.296;2022-12-18T03:00:12;102818.0;;;-4.45;86.77
64023;BME280;50264;52.088;5.296;2022-12-18T03:01:55;102817.0;;;-4.58;86.89
64023;BME280;50264;52.088;5.296;2022-12-18T03:05:17;102814.00000000001;;;-4.61;86.75
64023;BME280;50264;52.088;5.296;2022-12-18T03:07:02;102817.0;;;-4.68;86.55
64023;BME280;50264;52.088;5.296;2022-12-18T03:08:45;102808.0;;;-4.81;86.58
64023;BME280;50264;52.088;5.296;2022-12-18T03:10:25;102803.0;;;-4.9;86.84
64023;BME280;50264;52.088;5.296;2022-12-18T03:12:09;102803.0;;;-4.99;86.8
64023;BME280;50264;52.088;5.296;2022-12-18T03:15:34;102798.0;;;-5.05;86.98
64023;BME280;50264;52.088;5.296;2022-12-18T03:17:16;102786.99999999999;;;-5.03;86.87
64023;BME280;50264;52.088;5.296;2022-12-18T03:18:58;102788.00000000001;;;-5.07;86.84
64023;BME280;50264;52.088;5.296;2022-12-18T03:20:37;102786.99999999999;;;-5.1;86.91
64023;BME280;50264;52.088;5.296;2022-12-18T03:23:59;102781.0;;;-5.09;86.57
64023;BME280;50264;52.088;5.296;2022-12-18T03:25:41;102783.99999999999;;;-5.14;86.35
64023;BME280;50264;52.088;5.296;2022-12-18T03:27:20;102782.0;;;-5.08;85.96
64023;BME280;50264;52.088;5.296;2022-12-18T03:29:02;102783.99999999999;;;-5.21;86.0
64023;BME280;50264;52.088;5.296;2022-12-18T03:32:26;102774.0;;;-5.27;85.96
64023;BME280;50264;52.088;5.296;2022-12-18T03:34:09;102776.0;;;-5.4;86.03
64023;BME280;50264;52.088;5.296;2022-12-18T03:35:49;102772.0;;;-5.44;86.1
64023;BME280;50264;52.088;5.296;2022-12-18T03:37:26;102763.00000000001;;;-5.47;86.03
64023;BME280;50264;52.088;5.296;2022-12-18T03:40:53;102766.00000000001;;;-5.55;86.15
64023;BME280;50264;52.088;5.296;2022-12-18T03:42:40;102766.00000000001;;;-5.58;86.17
64023;BME280;50264;52.088;5.296;2022-12-18T03:44:27;102768.0;;;-5.56;85.96
64023;BME280;50264;52.088;5.296;2022-12-18T03:46:11;102767.0;;;-5.58;85.91
64023;BME280;50264;52.088;5.296;2022-12-18T03:47:59;102773.0;;;-5.47;85.73
64023;BME280;50264;52.088;5.296;2022-12-18T03:51:27;102767.0;;;-5.56;85.43
64023;BME280;50264;52.088;5.296;2022-12-18T03:53:14;102763.00000000001;;;-5.62;85.33
64023;BME280;50264;52.088;5.296;2022-12-18T03:54:56;102767.0;;;-5.67;85.14
64023;BME280;50264;52.088;5.296;2022-12-18T03:56:38;102765.00000000001;;;-5.74;85.23
64023;BME280;50264;52.088;5.296;2022-12-18T03:58:19;102764.00000000001;;;-5.82;85.34
64023;BME280;50264;52.088;5.296;2022-12-18T04:01:40;102764.00000000001;;;-5.81;85.46
64023;BME280;50264;52.088;5.296;2022-12-18T04:03:19;102758.0;;;-5.82;84.86
64023;BME280;50264;52.088;5.296;2022-12-18T04:04:59;102752.0;;;-5.92;85.14
64023;BME280;50264;52.088;5.296;2022-12-18T04:06:38;102744.0;;;-5.93;85.79
64023;BME280;50264;52.088;5.296;2022-12-18T04:09:54;102742.0;;;-5.92;85.6
64023;BME280;50264;52.088;5.296;2022-12-18T04:11:32;102741.00000000001;;;-5.83;85.47
64023;BME280;50264;52.088;5.296;2022-12-18T04:13:09;102738.00000000001;;;-5.83;85.17
64023;BME280;50264;52.088;5.296;2022-12-18T04:14:45;102729.0;;;-5.68;85.24
64023;BME280;50264;52.088;5.296;2022-12-18T04:17:57;102724.0;;;-5.73;84.33
64023;BME280;50264;52.088;5.296;2022-12-18T04:19:33;102725.0;;;-5.77;84.34
64023;BME280;50264;52.088;5.296;2022-12-18T04:21:10;102727.0;;;-5.82;84.66
64023;BME280;50264;52.088;5.296;2022-12-18T04:24:24;102725.0;;;-5.9;84.57
64023;BME280;50264;52.088;5.296;2022-12-18T04:26:00;102730.0;;;-5.99;84.63
64023;BME280;50264;52.088;5.296;2022-12-18T04:27:36;102728.0;;;-6.07;84.88
64023;BME280;50264;52.088;5.296;2022-12-18T04:30:48;102726.0;;;-6.11;85.04
64023;BME280;50264;52.088;5.296;2022-12-18T04:32:24;102725.0;;;-6.13;84.98
64023;BME280;50264;52.088;5.296;2022-12-18T04:34:01;102723.0;;;-5.98;84.66
64023;BME280;50264;52.088;5.296;2022-12-18T04:37:13;102727.0;;;-6.09;84.51
64023;BME280;50264;52.088;5.296;2022-12-18T04:38:49;102729.0;;;-6.07;85.03
64023;BME280;50264;52.088;5.296;2022-12-18T04:40:25;102731.0;;;-6.14;84.63
64023;BME280;50264;52.088;5.296;2022-12-18T04:42:02;102738.00000000001;;;-6.13;85.14
64023;BME280;50264;52.088;5.296;2022-12-18T04:45:14;102741.00000000001;;;-6.16;84.62
64023;BME280;50264;52.088;5.296;2022-12-18T04:46:50;102743.0;;;-6.27;84.28
64023;BME280;50264;52.088;5.296;2022-12-18T04:48:26;102747.0;;;-6.28;84.69
64023;BME280;50264;52.088;5.296;2022-12-18T04:51:40;102753.0;;;-6.27;85.63
64023;BME280;50264;52.088;5.296;2022-12-18T04:53:16;102754.0;;;-6.21;85.67
64023;BME280;50264;52.088;5.296;2022-12-18T04:54:52;102754.0;;;-6.15;85.54
64023;BME280;50264;52.088;5.296;2022-12-18T04:58:07;102757.0;;;-6.16;85.48
64023;BME280;50264;52.088;5.296;2022-12-18T04:59:43;102758.99999999999;;;-6.17;85.35
64023;BME280;50264;52.088;5.296;2022-12-18T05:01:19;102757.0;;;-6.06;85.89
64023;BME280;50264;52.088;5.296;2022-12-18T05:02:55;102767.0;;;-6.12;85.33
64023;BME280;50264;52.088;5.296;2022-12-18T05:06:08;102777.0;;;-6.16;85.38
64023;BME280;50264;52.088;5.296;2022-12-18T05:07:45;102778.0;;;-6.05;85.57
64023;BME280;50264;52.088;5.296;2022-12-18T05:09:21;102768.0;;;-5.98;85.66
64023;BME280;50264;52.088;5.296;2022-12-18T05:12:37;102777.0;;;-5.98;85.79
64023;BME280;50264;52.088;5.296;2022-12-18T05:14:13;102776.0;;;-5.93;85.66
64023;BME280;50264;52.088;5.296;2022-12-18T05:15:51;102778.0;;;-5.94;85.56
64023;BME280;50264;52.088;5.296;2022-12-18T05:19:04;102780.0;;;-5.98;85.35
64023;BME280;50264;52.088;5.296;2022-12-18T05:20:40;102783.0;;;-6.09;84.79
64023;BME280;50264;52.088;5.296;2022-12-18T05:22:17;102788.00000000001;;;-6.14;84.86
64023;BME280;50264;52.088;5.296;2022-12-18T05:23:53;102784.99999999999;;;-6.07;85.47
64023;BME280;50264;52.088;5.296;2022-12-18T05:27:05;102783.0;;;-5.91;85.24
64023;BME280;50264;52.088;5.296;2022-12-18T05:28:41;102792.0;;;-5.92;85.36
64023;BME280;50264;52.088;5.296;2022-12-18T05:30:18;102794.0;;;-5.95;84.88
64023;BME280;50264;52.088;5.296;2022-12-18T05:33:31;102797.0;;;-6.0;84.88
64023;BME280;50264;52.088;5.296;2022-12-18T05:35:11;102795.0;;;-5.98;85.22
64023;BME280;50264;52.088;5.296;2022-12-18T05:36:47;102797.0;;;-6.03;84.95
64023;BME280;50264;52.088;5.296;2022-12-18T05:40:03;102790.00000000001;;;-5.99;85.14
64023;BME280;50264;52.088;5.296;2022-12-18T05:41:40;102781.0;;;-5.92;85.19
64023;BME280;50264;52.088;5.296;2022-12-18T05:43:17;102780.0;;;-5.96;84.5
64023;BME280;50264;52.088;5.296;2022-12-18T05:44:53;102776.0;;;-5.9;85.23
64023;BME280;50264;52.088;5.296;2022-12-18T05:48:07;102772.0;;;-5.92;84.74
64023;BME280;50264;52.088;5.296;2022-12-18T05:49:43;102767.0;;;-5.72;84.92
64023;BME280;50264;52.088;5.296;2022-12-18T05:51:21;102765.00000000001;;;-5.81;84.01
64023;BME280;50264;52.088;5.296;2022-12-18T05:54:33;102770.0;;;-5.82;84.36
64023;BME280;50264;52.088;5.296;2022-12-18T05:56:12;102770.0;;;-5.88;84.24
64023;BME280;50264;52.088;5.296;2022-12-18T05:57:50;102766.00000000001;;;-6.02;84.35
64023;BME280;50264;52.088;5.296;2022-12-18T05:59:26;102761.99999999999;;;-5.97;84.3
64023;BME280;50264;52.088;5.296;2022-12-18T06:02:46;102757.0;;;-5.95;84.29
64023;BME280;50264;52.088;5.296;2022-12-18T06:04:23;102754.0;;;-5.99;83.83
64023;BME280;50264;52.088;5.296;2022-12-18T06:05:59;102745.0;;;-6.08;84.13
64023;BME280;50264;52.088;5.296;2022-12-18T06:09:11;102745.0;;;-6.09;84.1
64023;BME280;50264;52.088;5.296;2022-12-18T06:10:50;102747.0;;;-6.05;84.55
64023;BME280;50264;52.088;5.296;2022-12-18T06:12:27;102738.00000000001;;;-6.05;84.22
64023;BME280;50264;52.088;5.296;2022-12-18T06:14:04;102736.99999999999;;;-5.99;83.83
64023;BME280;50264;52.088;5.296;2022-12-18T06:17:17;102732.0;;;-6.16;83.84
64023;BME280;50264;52.088;5.296;2022-12-18T06:20:32;102730.0;;;-6.16;83.82
64023;BME280;50264;52.088;5.296;2022-12-18T06:23:44;102729.0;;;-6.23;83.65
64023;BME280;50264;52.088;5.296;2022-12-18T06:25:20;102726.0;;;-6.33;83.84
64023;BME280;50264;52.088;5.296;2022-12-18T06:26:56;102730.0;;;-6.37;83.96
64023;BME280;50264;52.088;5.296;2022-12-18T06:30:10;102727.0;;;-6.34;84.28
64023;BME280;50264;52.088;5.296;2022-12-18T06:31:46;102726.0;;;-6.44;84.03
64023;BME280;50264;52.088;5.296;2022-12-18T06:33:26;102733.0;;;-6.41;84.29
64023;BME280;50264;52.088;5.296;2022-12-18T06:35:03;102732.0;;;-6.47;83.99
64023;BME280;50264;52.088;5.296;2022-12-18T06:38:16;102738.00000000001;;;-6.5;83.73
64023;BME280;50264;52.088;5.296;2022-12-18T06:39:52;102730.0;;;-6.59;83.64
64023;BME280;50264;52.088;5.296;2022-12-18T06:41:28;102721.0;;;-6.52;84.45
64023;BME280;50264;52.088;5.296;2022-12-18T06:44:42;102723.0;;;-6.54;84.2
64023;BME280;50264;52.088;5.296;2022-12-18T06:46:18;102718.0;;;-6.47;84.25
64023;BME280;50264;52.088;5.296;2022-12-18T06:47:55;102715.00000000001;;;-6.33;83.99
64023;BME280;50264;52.088;5.296;2022-12-18T06:51:08;102706.0;;;-6.2;83.88
64023;BME280;50264;52.088;5.296;2022-12-18T06:52:43;102698.0;;;-6.23;83.45
64023;BME280;50264;52.088;5.296;2022-12-18T06:54:20;102693.0;;;-6.22;83.38
64023;BME280;50264;52.088;5.296;2022-12-18T06:56:00;102692.0;;;-6.32;82.9
64023;BME280;50264;52.088;5.296;2022-12-18T06:59:14;102691.00000000001;;;-6.39;83.58
64023;BME280;50264;52.088;5.296;2022-12-18T07:00:50;102688.00000000001;;;-6.53;83.02
64023;BME280;50264;52.088;5.296;2022-12-18T07:02:27;102692.0;;;-6.5;84.08
64023;BME280;50264;52.088;5.296;2022-12-18T07:05:40;102690.00000000001;;;-6.44;84.33
64023;BME280;50264;52.088;5.296;2022-12-18T07:07:16;102686.99999999999;;;-6.37;84.42
64023;BME280;50264;52.088;5.296;2022-12-18T07:08:54;102690.00000000001;;;-6.41;83.97
64023;BME280;50264;52.088;5.296;2022-12-18T07:10:31;102688.00000000001;;;-6.49;84.15
64023;BME280;50264;52.088;5.296;2022-12-18T07:13:43;102682.0;;;-6.46;83.97
64023;BME280;50264;52.088;5.296;2022-12-18T07:15:20;102675.0;;;-6.46;84.02
64023;BME280;50264;52.088;5.296;2022-12-18T07:16:56;102674.0;;;-6.48;83.89
64023;BME280;50264;52.088;5.296;2022-12-18T07:20:10;102667.0;;;-6.6;83.9
64023;BME280;50264;52.088;5.296;2022-12-18T07:21:46;102667.0;;;-6.59;84.81
64023;BME280;50264;52.088;5.296;2022-12-18T07:23:22;102669.0;;;-6.56;84.56
64023;BME280;50264;52.088;5.296;2022-12-18T07:26:35;102668.0;;;-6.54;84.88
64023;BME280;50264;52.088;5.296;2022-12-18T07:28:11;102676.0;;;-6.49;84.67
64023;BME280;50264;52.088;5.296;2022-12-18T07:29:47;102676.0;;;-6.38;84.92
64023;BME280;50264;52.088;5.296;2022-12-18T07:31:24;102675.0;;;-6.24;84.92
64023;BME280;50264;52.088;5.296;2022-12-18T07:34:37;102672.0;;;-6.19;84.96
64023;BME280;50264;52.088;5.296;2022-12-18T07:36:13;102667.0;;;-6.21;84.72
64023;BME280;50264;52.088;5.296;2022-12-18T07:37:50;102656.0;;;-6.12;84.67
64023;BME280;50264;52.088;5.296;2022-12-18T07:41:03;102648.0;;;-6.05;84.87
64023;BME280;50264;52.088;5.296;2022-12-18T07:42:40;102642.0;;;-6.04;84.67
64023;BME280;50264;52.088;5.296;2022-12-18T07:44:17;102636.99999999999;;;-6.17;84.26
64023;BME280;50264;52.088;5.296;2022-12-18T07:47:34;102638.00000000001;;;-6.16;84.55
64023;BME280;50264;52.088;5.296;2022-12-18T07:49:10;102636.99999999999;;;-6.07;85.19
64023;BME280;50264;52.088;5.296;2022-12-18T07:50:47;102628.0;;;-5.98;85.52
64023;BME280;50264;52.088;5.296;2022-12-18T07:52:22;102633.99999999999;;;-5.95;85.42
64023;BME280;50264;52.088;5.296;2022-12-18T07:55:35;102626.0;;;-5.97;85.28
64023;BME280;50264;52.088;5.296;2022-12-18T07:57:11;102621.0;;;-5.87;85.35
64023;BME280;50264;52.088;5.296;2022-12-18T07:58:48;102625.0;;;-5.87;85.58
64023;BME280;50264;52.088;5.296;2022-12-18T08:02:00;102622.0;;;-5.78;85.42
64023;BME280;50264;52.088;5.296;2022-12-18T08:03:38;102624.0;;;-5.75;85.94
64023;BME280;50264;52.088;5.296;2022-12-18T08:05:14;102624.0;;;-5.71;85.79
64023;BME280;50264;52.088;5.296;2022-12-18T08:08:27;102617.0;;;-5.68;85.27
64023;BME280;50264;52.088;5.296;2022-12-18T08:10:05;102602.0;;;-5.58;85.66
64023;BME280;50264;52.088;5.296;2022-12-18T08:11:42;102605.0;;;-5.54;85.92
64023;BME280;50264;52.088;5.296;2022-12-18T08:13:19;102600.0;;;-5.49;85.61
64023;BME280;50264;52.088;5.296;2022-12-18T08:16:31;102613.00000000001;;;-5.48;85.72
64023;BME280;50264;52.088;5.296;2022-12-18T08:18:07;102617.0;;;-5.37;86.42
64023;BME280;50264;52.088;5.296;2022-12-18T08:19:43;102620.0;;;-5.25;86.29
64023;BME280;50264;52.088;5.296;2022-12-18T08:22:58;102620.0;;;-5.19;86.18
64023;BME280;50264;52.088;5.296;2022-12-18T08:24:34;102628.0;;;-5.19;85.69
64023;BME280;50264;52.088;5.296;2022-12-18T08:26:11;102633.99999999999;;;-5.1;86.68
64023;BME280;50264;52.088;5.296;2022-12-18T08:29:24;102633.99999999999;;;-5.04;86.41
64023;BME280;50264;52.088;5.296;2022-12-18T08:31:00;102642.0;;;-5.04;85.91
64023;BME280;50264;52.088;5.296;2022-12-18T08:32:36;102639.00000000001;;;-4.95;86.57
64023;BME280;50264;52.088;5.296;2022-12-18T08:34:11;102638.00000000001;;;-4.8;86.53
64023;BME280;50264;52.088;5.296;2022-12-18T08:37:24;102642.0;;;-4.86;86.2
64023;BME280;50264;52.088;5.296;2022-12-18T08:39:00;102642.0;;;-4.85;85.96
64023;BME280;50264;52.088;5.296;2022-12-18T08:40:36;102643.0;;;-4.91;85.87
64023;BME280;50264;52.088;5.296;2022-12-18T08:43:48;102641.00000000001;;;-4.94;86.02
64023;BME280;50264;52.088;5.296;2022-12-18T08:45:25;102632.0;;;-4.84;86.71
64023;BME280;50264;52.088;5.296;2022-12-18T08:47:01;102633.99999999999;;;-4.8;86.8
64023;BME280;50264;52.088;5.296;2022-12-18T08:50:14;102631.0;;;-4.78;86.48
64023;BME280;50264;52.088;5.296;2022-12-18T08:51:53;102620.0;;;-4.75;86.81
64023;BME280;50264;52.088;5.296;2022-12-18T08:53:30;102620.0;;;-4.7;87.21
64023;BME280;50264;52.088;5.296;2022-12-18T08:55:08;102621.0;;;-4.57;86.93
64023;BME280;50264;52.088;5.296;2022-12-18T08:58:21;102627.0;;;-4.62;86.81
64023;BME280;50264;52.088;5.296;2022-12-18T08:59:57;102626.0;;;-4.57;87.53
64023;BME280;50264;52.088;5.296;2022-12-18T09:01:33;102623.0;;;-4.51;87.4
64023;BME280;50264;52.088;5.296;2022-12-18T09:04:48;102624.0;;;-4.33;87.37
64023;BME280;50264;52.088;5.296;2022-12-18T09:06:24;102621.0;;;-4.2;87.54
64023;BME280;50264;52.088;5.296;2022-12-18T09:08:00;102613.00000000001;;;-4.15;87.38
64023;BME280;50264;52.088;5.296;2022-12-18T09:11:14;102617.0;;;-4.02;87.18
64023;BME280;50264;52.088;5.296;2022-12-18T09:12:54;102613.00000000001;;;-3.9;87.15
64023;BME280;50264;52.088;5.296;2022-12-18T09:14:30;102620.0;;;-3.84;86.94
64023;BME280;50264;52.088;5.296;2022-12-18T09:16:07;102627.0;;;-3.71;87.32
64023;BME280;50264;52.088;5.296;2022-12-18T09:19:19;102629.0;;;-3.6;87.29
64023;BME280;50264;52.088;5.296;2022-12-18T09:20:55;102628.0;;;-3.57;87.31
64023;BME280;50264;52.088;5.296;2022-12-18T09:22:31;102617.0;;;-3.35;86.98
64023;BME280;50264;52.088;5.296;2022-12-18T09:25:49;102616.00000000001;;;-3.37;86.91
64023;BME280;50264;52.088;5.296;2022-12-18T09:27:25;102621.0;;;-3.29;86.95
64023;BME280;50264;52.088;5.296;2022-12-18T09:29:02;102622.0;;;-3.22;86.92
64023;BME280;50264;52.088;5.296;2022-12-18T09:30:39;102621.0;;;-3.19;86.71
64023;BME280;50264;52.088;5.296;2022-12-18T09:33:54;102615.00000000001;;;-3.11;86.71
64023;BME280;50264;52.088;5.296;2022-12-18T09:35:30;102607.0;;;-3.04;86.54
64023;BME280;50264;52.088;5.296;2022-12-18T09:37:07;102601.0;;;-3.06;86.48
64023;BME280;50264;52.088;5.296;2022-12-18T09:40:22;102593.0;;;-2.97;86.64
64023;BME280;50264;52.088;5.296;2022-12-18T09:42:02;102592.0;;;-2.99;87.01
64023;BME280;50264;52.088;5.296;2022-12-18T09:43:42;102592.0;;;-2.86;86.23
64023;BME280;50264;52.088;5.296;2022-12-18T09:45:21;102592.0;;;-2.79;86.23
64023;BME280;50264;52.088;5.296;2022-12-18T09:48:49;102582.0;;;-2.68;85.57
64023;BME280;50264;52.088;5.296;2022-12-18T09:50:29;102577.0;;;-2.62;84.95
64023;BME280;50264;52.088;5.296;2022-12-18T09:52:13;102586.99999999999;;;-2.54;85.33
64023;BME280;50264;52.088;5.296;2022-12-18T09:53:55;102579.0;;;-2.45;85.61
64023;BME280;50264;52.088;5.296;2022-12-18T09:57:15;102574.0;;;-2.42;84.92
64023;BME280;50264;52.088;5.296;2022-12-18T09:58:57;102579.0;;;-2.4;85.8
64023;BME280;50264;52.088;5.296;2022-12-18T10:00:35;102579.0;;;-2.26;85.64
64023;BME280;50264;52.088;5.296;2022-12-18T10:02:14;102571.0;;;-2.34;86.4
64023;BME280;50264;52.088;5.296;2022-12-18T10:05:37;102567.0;;;-2.25;86.32
64023;BME280;50264;52.088;5.296;2022-12-18T10:07:28;102569.0;;;-2.24;85.77
64023;BME280;50264;52.088;5.296;2022-12-18T10:09:15;102574.0;;;-2.2;86.22
64023;BME280;50264;52.088;5.296;2022-12-18T10:11:01;102564.00000000001;;;-2.11;86.61
64023;BME280;50264;52.088;5.296;2022-12-18T10:12:51;102556.0;;;-1.98;85.75
64023;BME280;50264;52.088;5.296;2022-12-18T10:16:21;102549.0;;;-2.02;84.79
64023;BME280;50264;52.088;5.296;2022-12-18T10:18:11;102554.0;;;-1.97;84.62
64023;BME280;50264;52.088;5.296;2022-12-18T10:20:00;102558.99999999999;;;-1.84;84.68
64023;BME280;50264;52.088;5.296;2022-12-18T10:21:42;102565.00000000001;;;-1.66;83.54
64023;BME280;50264;52.088;5.296;2022-12-18T10:23:28;102572.0;;;-1.72;83.3
64023;BME280;50264;52.088;5.296;2022-12-18T10:25:18;102572.0;;;-1.69;83.44
64023;BME280;50264;52.088;5.296;2022-12-18T10:28:45;102567.0;;;-1.68;83.73
64023;BME280;50264;52.088;5.296;2022-12-18T10:30:24;102563.00000000001;;;-1.54;83.51
64023;BME280;50264;52.088;5.296;2022-12-18T10:32:01;102557.0;;;-1.6;85.24
64023;BME280;50264;52.088;5.296;2022-12-18T10:33:38;102559.99999999999;;;-1.58;82.46
64023;BME280;50264;52.088;5.296;2022-12-18T10:36:55;102554.0;;;-1.58;83.11
64023;BME280;50264;52.088;5.296;2022-12-18T10:38:33;102551.0;;;-1.55;84.22
64023;BME280;50264;52.088;5.296;2022-12-18T10:40:11;102551.0;;;-1.5;83.47
64023;BME280;50264;52.088;5.296;2022-12-18T10:43:26;102545.0;;;-1.46;83.59
64023;BME280;50264;52.088;5.296;2022-12-18T10:45:10;102546.0;;;-1.44;83.57
64023;BME280;50264;52.088;5.296;2022-12-18T10:46:53;102533.0;;;-1.31;80.86
64023;BME280;50264;52.088;5.296;2022-12-18T10:48:30;102518.0;;;-1.27;82.31